Data for 11/09/2015

Time Sea-Level Adjusted Pressure Absolute Pressure Temperature Relative Humidity Dew Point   
(mb) (inHg) (mb) (inHg) (C) (F) (%) (C) (F)
00:05 1014 29.94 843 24.89 4.1 39.4 49 -5.8 21.6
00:10 1014 29.94 843 24.89 3.8 38.9 51 -5.5 22.1
00:15 1014 29.94 843 24.89 3.4 38.1 51 -5.8 21.5
00:20 1014 29.94 843 24.89 3.3 37.9 51 -5.8 21.5
00:25 1014 29.94 843 24.89 3.6 38.4 50 -6 21.2
00:30 1014 29.94 843 24.89 3.4 38.1 52 -5.5 22
00:35 1014 29.94 843 24.89 3.2 37.7 54 -5.2 22.6
00:40 1014 29.94 843 24.89 3 37.5 53 -5.6 21.9
00:45 1014 29.94 843 24.89 3 37.5 53 -5.7 21.8
00:50 1014 29.94 843 24.89 3.2 37.7 51 -6.1 21.1
00:55 1014 29.94 843 24.89 3.1 37.6 54 -5.3 22.4
01:00 1014 29.94 843 24.89 2.9 37.2 54 -5.5 22
01:05 1014 29.94 843 24.89 2.6 36.7 56 -5.2 22.6
01:10 1014 29.94 843 24.89 2.1 35.8 56 -5.7 21.7
01:15 1014 29.94 843 24.89 2.7 36.9 54 -5.8 21.6
01:20 1014 29.94 843 24.89 2.7 36.9 54 -5.7 21.8
01:25 1014 29.94 843 24.89 2.7 36.8 54 -5.7 21.8
01:30 1014 29.94 843 24.89 2.7 36.8 54 -5.7 21.8
01:35 1014 29.94 843 24.89 2.7 36.8 53 -5.9 21.4
01:40 1014 29.94 843 24.89 2.8 37 54 -5.5 22
01:45 1013 29.91 843 24.89 2.4 36.3 55 -5.8 21.5
01:50 1013 29.91 843 24.89 2.6 36.7 55 -5.6 22
01:55 1013 29.91 842 24.86 2.4 36.3 57 -5.2 22.6
02:00 1013 29.91 842 24.86 2.2 36 57 -5.5 22
02:05 1013 29.91 842 24.86 2.7 36.9 52 -6.2 20.9
02:10 1013 29.91 842 24.86 2.7 36.9 54 -5.6 21.8
02:15 1013 29.91 842 24.86 2.6 36.7 55 -5.6 21.9
02:20 1013 29.91 842 24.86 2.5 36.4 56 -5.5 22.1
02:25 1013 29.91 842 24.86 2.5 36.4 55 -5.8 21.6
02:30 1013 29.91 842 24.86 2.5 36.4 56 -5.5 22
02:35 1013 29.91 842 24.86 2.3 36.1 56 -5.5 22
02:40 1013 29.91 842 24.86 2.2 35.9 57 -5.5 22
02:45 1013 29.91 842 24.86 2.1 35.7 57 -5.5 22.1
02:50 1013 29.91 842 24.86 1.9 35.4 59 -5.4 22.4
02:55 1013 29.91 842 24.86 1.8 35.3 59 -5.4 22.3
03:00 1013 29.91 842 24.86 2.2 36 54 -6.1 20.9
03:05 1013 29.91 842 24.86 2.6 36.7 53 -6.1 21
03:10 1013 29.91 842 24.86 2.7 36.8 54 -5.6 21.9
03:15 1013 29.91 842 24.86 2.1 35.8 57 -5.5 22.2
03:20 1013 29.91 842 24.86 2 35.7 58 -5.4 22.2
03:25 1013 29.91 842 24.86 1.8 35.2 59 -5.3 22.4
03:30 1013 29.91 842 24.86 1.7 35.1 59 -5.4 22.4
03:35 1013 29.91 842 24.86 1.7 35.1 59 -5.4 22.2
03:40 1013 29.91 842 24.86 1.6 35 60 -5.3 22.5
03:45 1013 29.91 842 24.86 1.5 34.8 60 -5.5 22.2
03:50 1013 29.91 842 24.86 1.7 35.1 58 -5.7 21.8
03:55 1013 29.91 842 24.86 1.9 35.5 57 -5.7 21.8
04:00 1013 29.91 842 24.86 2.1 35.8 58 -5.4 22.2
04:05 1013 29.91 842 24.86 1.9 35.3 59 -5.3 22.5
04:10 1013 29.91 842 24.86 1.9 35.3 56 -6 21.1
04:15 1013 29.91 842 24.86 2.4 36.3 57 -5.2 22.6
04:20 1013 29.91 842 24.86 2.2 36 57 -5.4 22.3
04:25 1013 29.91 842 24.86 2.3 36.2 56 -5.5 22.1
04:30 1013 29.91 842 24.86 2.2 36 61 -4.5 23.9
04:35 1013 29.91 842 24.86 1.8 35.2 59 -5.5 22.2
04:40 1012 29.88 842 24.86 2.2 36 60 -4.8 23.4
04:45 1012 29.88 842 24.86 1.6 34.9 65 -4.3 24.3
04:50 1012 29.88 841 24.83 0.7 33.3 68 -4.6 23.8
04:55 1012 29.88 841 24.83 0.7 33.2 65 -5.1 22.7
05:00 1012 29.88 842 24.86 1.5 34.6 63 -4.9 23.1
05:05 1012 29.88 842 24.86 1.6 34.9 59 -5.5 22.1
05:10 1012 29.88 842 24.86 1.9 35.4 60 -5.1 22.9
05:15 1012 29.88 842 24.86 2 35.5 58 -5.5 22.2
05:20 1012 29.88 842 24.86 2.2 35.9 59 -5.1 22.8
05:25 1012 29.88 842 24.86 2.2 36 59 -5.1 22.9
05:30 1012 29.88 842 24.86 2.2 35.9 61 -4.7 23.6
05:35 1012 29.88 842 24.86 2 35.6 60 -5 23.1
05:40 1012 29.88 842 24.86 2.1 35.7 60 -4.9 23.1
05:45 1012 29.88 842 24.86 2 35.6 61 -4.8 23.3
05:50 1012 29.88 842 24.86 2 35.7 60 -5 23.1
05:55 1012 29.88 842 24.86 2 35.6 60 -4.9 23.2
06:00 1012 29.88 842 24.86 1.8 35.3 63 -4.6 23.8
06:05 1012 29.88 842 24.86 1.5 34.7 66 -4.2 24.4
06:10 1012 29.88 842 24.86 1.3 34.4 64 -4.7 23.6
06:15 1012 29.88 842 24.86 1.3 34.4 64 -4.7 23.6
06:20 1012 29.88 842 24.86 1.6 34.9 62 -4.9 23.2
06:25 1012 29.88 841 24.83 1.9 35.4 62 -4.6 23.7
06:30 1012 29.88 841 24.83 2 35.5 61 -4.7 23.5
06:35 1012 29.88 841 24.83 2.1 35.7 62 -4.5 23.9
06:40 1012 29.88 841 24.83 2.1 35.8 64 -4.1 24.7
06:45 1012 29.88 841 24.83 1.9 35.4 64 -4.3 24.3
06:50 1012 29.88 841 24.83 1.7 35.1 69 -3.4 25.8
06:55 1012 29.88 841 24.83 1.6 34.9 69 -3.5 25.8
07:00 1012 29.88 841 24.83 1.3 34.4 71 -3.5 25.8
07:05 1012 29.88 841 24.83 1.4 34.5 70 -3.6 25.6
07:10 1012 29.88 841 24.83 1.4 34.5 68 -3.9 24.9
07:15 1012 29.88 841 24.83 1.6 34.8 67 -3.8 25.1
07:20 1012 29.88 841 24.83 1.7 35 68 -3.6 25.6
07:25 1012 29.88 841 24.83 1.5 34.7 70 -3.4 25.8
07:30 1012 29.88 841 24.83 1.2 34.2 71 -3.5 25.8
07:35 1012 29.88 841 24.83 0.9 33.7 72 -3.6 25.5
07:40 1012 29.88 841 24.83 0.9 33.6 71 -3.7 25.3
07:45 1011 29.85 841 24.83 1 33.7 73 -3.4 25.8
07:50 1011 29.85 841 24.83 0.8 33.5 73 -3.5 25.7
07:55 1011 29.85 841 24.83 1 33.8 66 -4.7 23.6
08:00 1012 29.88 841 24.83 1.6 34.8 72 -3 26.5
08:05 1011 29.85 841 24.83 1.4 34.5 69 -3.7 25.4
08:10 1011 29.85 841 24.83 1.7 35.1 63 -4.7 23.6
08:15 1011 29.85 841 24.83 2 35.5 67 -3.4 25.8
08:20 1011 29.85 841 24.83 1.6 34.8 68 -3.7 25.4
08:25 1011 29.85 841 24.83 1.3 34.4 70 -3.6 25.5
08:30 1011 29.85 841 24.83 1.5 34.7 65 -4.4 24.1
08:35 1011 29.85 840 24.81 2 35.6 63 -4.4 24.1
08:40 1011 29.85 841 24.83 2.2 36 60 -4.7 23.5
08:45 1011 29.85 841 24.83 2.5 36.5 61 -4.3 24.3
08:50 1011 29.85 841 24.83 2.6 36.7 58 -4.8 23.3
08:55 1011 29.85 841 24.83 3.1 37.6 49 -6.5 20.4
09:00 1011 29.85 840 24.81 3.7 38.7 51 -5.5 22.1
09:05 1011 29.85 840 24.81 3.5 38.2 54 -4.9 23.2
09:10 1011 29.85 840 24.81 2.9 37.3 57 -4.9 23.3
09:15 1011 29.85 840 24.81 2.9 37.2 56 -5 23
09:20 1011 29.85 840 24.81 3.2 37.8 50 -6.2 20.9
09:25 1011 29.85 840 24.81 3.6 38.5 50 -5.7 21.7
09:30 1011 29.85 840 24.81 3.8 38.8 48 -6.3 20.7
09:35 1011 29.85 840 24.81 4.1 39.3 49 -5.8 21.6
09:40 1011 29.85 840 24.81 4.1 39.4 48 -6 21.2
09:45 1011 29.85 840 24.81 4.3 39.7 46 -6.4 20.4
09:50 1011 29.85 840 24.81 4.5 40.1 45 -6.5 20.2
09:55 1011 29.85 840 24.81 4.7 40.5 44 -6.4 20.5
10:00 1011 29.85 840 24.81 4.8 40.6 46 -6 21.1
10:05 1011 29.85 840 24.81 4.6 40.3 47 -5.9 21.4
10:10 1011 29.85 840 24.81 4.4 40 46 -6.2 20.9
10:15 1011 29.85 840 24.81 4.6 40.2 45 -6.3 20.7
10:20 1011 29.85 840 24.81 4.7 40.4 46 -5.9 21.3
10:25 1011 29.85 840 24.81 4.8 40.6 45 -6.2 20.8
10:30 1011 29.85 840 24.81 5.1 41.2 46 -5.5 22.2
10:35 1011 29.85 840 24.81 5.2 41.4 43 -6.4 20.4
10:40 1011 29.85 840 24.81 5.4 41.6 46 -5.4 22.2
10:45 1011 29.85 840 24.81 5.3 41.5 43 -6.3 20.7
10:50 1011 29.85 840 24.81 5.3 41.6 39 -7.5 18.5
10:55 1011 29.85 840 24.81 5.8 42.5 40 -6.8 19.7
11:00 1011 29.85 840 24.81 5.7 42.2 47 -4.9 23.2
11:05 1010 29.83 840 24.81 5.3 41.5 50 -4.4 24.1
11:10 1010 29.83 840 24.81 4.8 40.7 49 -5.1 22.8
11:15 1010 29.83 839 24.78 4.8 40.6 47 -5.5 22.1
11:20 1010 29.83 839 24.78 5.3 41.6 42 -6.6 20.2
11:25 1010 29.83 839 24.78 5.8 42.4 39 -7 19.4
11:30 1010 29.83 839 24.78 6.6 43.8 34 -8.2 17.2
11:35 1010 29.83 839 24.78 7.2 44.9 33 -8.1 17.4
11:40 1010 29.83 839 24.78 7.6 45.8 32 -8.2 17.3
11:45 1010 29.83 839 24.78 7.9 46.2 32 -7.9 17.7
11:50 1010 29.83 839 24.78 8 46.5 31 -7.9 17.7
11:55 1010 29.83 839 24.78 8.2 46.8 31 -7.7 18.1
12:00 1010 29.83 839 24.78 8.4 47 32 -7.6 18.4
12:05 1010 29.83 839 24.78 8.6 47.5 32 -7.2 19.1
12:10 1010 29.83 839 24.78 8.8 47.9 30 -7.6 18.2
12:15 1010 29.83 839 24.78 9.2 48.6 31 -6.8 19.7
12:20 1010 29.83 839 24.78 9.2 48.6 31 -7 19.4
12:25 1010 29.83 839 24.78 9.3 48.7 30 -7.2 19
12:30 1010 29.83 839 24.78 9.5 49.1 29 -7.5 18.6
12:35 1010 29.83 839 24.78 9.5 49.1 30 -7.1 19.2
12:40 1009 29.8 839 24.78 9.6 49.3 32 -6.4 20.5
12:45 1009 29.8 839 24.78 9.6 49.4 34 -5.6 21.9
12:50 1009 29.8 839 24.78 9.6 49.2 33 -5.7 21.7
12:55 1009 29.8 839 24.78 9.2 48.6 35 -5.5 22.1
13:00 1009 29.8 838 24.75 8.9 48 41 -3.7 25.4
13:05 1009 29.8 838 24.75 7.3 45.1 48 -3 26.6
13:10 1009 29.8 838 24.75 6.6 43.8 45 -4.6 23.7
13:15 1009 29.8 838 24.75 6.9 44.5 46 -3.8 25.1
13:20 1009 29.8 838 24.75 6.9 44.4 49 -3.2 26.3
13:25 1009 29.8 838 24.75 6.3 43.4 51 -3 26.6
13:30 1009 29.8 838 24.75 6.1 42.9 52 -2.9 26.7
13:35 1009 29.8 838 24.75 5.7 42.3 53 -3.1 26.4
13:40 1009 29.8 838 24.75 5.5 41.8 54 -3.1 26.4
13:45 1009 29.8 838 24.75 5.2 41.3 58 -2.5 27.6
13:50 1009 29.8 838 24.75 4.7 40.5 59 -2.6 27.4
13:55 1009 29.8 838 24.75 4.9 40.7 60 -2.4 27.8
14:00 1009 29.8 838 24.75 4.2 39.6 64 -1.9 28.5
14:05 1009 29.8 838 24.75 4.2 39.5 64 -2.1 28.2
14:10 1009 29.8 838 24.75 4.3 39.7 64 -1.8 28.7
14:15 1009 29.8 838 24.75 3.9 39.1 66 -1.9 28.6
14:20 1009 29.8 838 24.75 4.3 39.7 64 -2 28.4
14:25 1009 29.8 838 24.75 4.3 39.7 64 -2 28.4
14:30 1009 29.8 838 24.75 4.1 39.3 63 -2.4 27.7
14:35 1009 29.8 838 24.75 4 39.1 65 -2.1 28.2
14:40 1009 29.8 838 24.75 4.2 39.5 63 -2.2 28
14:45 1009 29.8 838 24.75 4.7 40.5 62 -2 28.3
14:50 1009 29.8 838 24.75 4.4 39.8 63 -2.2 28.1
14:55 1009 29.8 838 24.75 4.5 40.1 61 -2.3 27.8
15:00 1009 29.8 838 24.75 5.1 41.2 59 -2.3 27.9
15:05 1009 29.8 838 24.75 5 41 59 -2.3 27.8
15:10 1009 29.8 838 24.75 5.6 42.1 56 -2.3 27.8
15:15 1009 29.8 838 24.75 5.4 41.8 59 -2 28.4
15:20 1009 29.8 838 24.75 5.2 41.3 55 -3.1 26.4
15:25 1009 29.8 838 24.75 5 41.1 54 -3.4 25.8
15:30 1009 29.8 838 24.75 4.6 40.3 53 -4 24.7
15:35 1009 29.8 838 24.75 4.5 40 52 -4.6 23.7
15:40 1009 29.8 838 24.75 4.6 40.2 51 -4.7 23.6
15:45 1009 29.8 838 24.75 4.5 40.1 51 -4.7 23.5
15:50 1009 29.8 838 24.75 4.2 39.6 52 -4.7 23.6
15:55 1009 29.8 838 24.75 4.2 39.5 53 -4.4 24
16:00 1009 29.8 838 24.75 4.1 39.4 54 -4.3 24.3
16:05 1009 29.8 838 24.75 4.2 39.6 55 -4.1 24.6
16:10 1009 29.8 838 24.75 4.4 40 54 -4 24.8
16:15 1009 29.8 838 24.75 4.6 40.3 53 -4.2 24.4
16:20 1009 29.8 838 24.75 4.7 40.5 50 -4.8 23.3
16:25 1009 29.8 838 24.75 4.8 40.6 52 -4.3 24.3
16:30 1009 29.8 838 24.75 5 41 51 -4.3 24.3
16:35 1009 29.8 838 24.75 5.3 41.6 50 -4.2 24.4
16:40 1009 29.8 838 24.75 5.5 41.9 50 -4 24.8
16:45 1009 29.8 838 24.75 5.5 42 51 -3.7 25.3
16:50 1009 29.8 838 24.75 5.6 42 51 -3.8 25.1
16:55 1009 29.8 838 24.75 5.4 41.6 54 -3.2 26.2
17:00 1009 29.8 838 24.75 5.1 41.2 53 -3.6 25.5
17:05 1009 29.8 838 24.75 5.1 41.2 53 -3.7 25.4
17:10 1009 29.8 838 24.75 5 41.1 53 -3.8 25.2
17:15 1009 29.8 838 24.75 5.1 41.2 55 -3.3 26
17:20 1009 29.8 838 24.75 5.1 41.1 56 -3 26.7
17:25 1009 29.8 838 24.75 5 41 55 -3.2 26.2
17:30 1009 29.8 838 24.75 5 40.9 57 -2.8 27
17:35 1009 29.8 838 24.75 4.9 40.8 57 -2.9 26.8
17:40 1009 29.8 838 24.75 4.8 40.7 54 -3.6 25.5
17:45 1009 29.8 838 24.75 4.9 40.7 54 -3.7 25.4
17:50 1009 29.8 838 24.75 4.9 40.7 57 -2.8 26.9
17:55 1009 29.8 838 24.75 4.5 40.2 57 -3.1 26.4
18:00 1009 29.8 838 24.75 4.5 40.1 56 -3.6 25.6
18:05 1009 29.8 838 24.75 4.6 40.2 59 -2.8 27
18:10 1009 29.8 838 24.75 4.3 39.8 60 -2.7 27.1
18:15 1009 29.8 838 24.75 4 39.3 60 -3.1 26.4
18:20 1009 29.8 838 24.75 4.1 39.4 60 -3 26.6
18:25 1009 29.8 838 24.75 4 39.2 61 -2.8 27
18:30 1009 29.8 838 24.75 3.9 39 57 -3.9 25
18:35 1009 29.8 838 24.75 4.1 39.4 58 -3.5 25.7
18:40 1009 29.8 839 24.78 4 39.3 61 -2.8 26.9
18:45 1009 29.8 838 24.75 3.6 38.4 61 -3.2 26.3
18:50 1009 29.8 838 24.75 3.1 37.6 65 -2.7 27.1
18:55 1009 29.8 838 24.75 3 37.4 62 -3.5 25.7
19:00 1009 29.8 838 24.75 3.1 37.5 59 -4.1 24.6
19:05 1009 29.8 838 24.75 3.4 38.1 60 -3.6 25.5
19:10 1009 29.8 839 24.78 2.9 37.2 66 -2.8 27
19:15 1009 29.8 839 24.78 2.5 36.5 67 -3 26.5
19:20 1009 29.8 839 24.78 2.5 36.5 66 -3.2 26.2
19:25 1009 29.8 839 24.78 3.1 37.5 63 -3.3 26.1
19:30 1009 29.8 839 24.78 3.5 38.3 63 -2.9 26.8
19:35 1009 29.8 839 24.78 3.2 37.8 64 -2.9 26.8
19:40 1009 29.8 839 24.78 3 37.4 65 -3 26.6
19:45 1010 29.83 839 24.78 3.2 37.8 65 -2.8 27
19:50 1010 29.83 839 24.78 2.8 37.1 66 -2.8 26.9
19:55 1010 29.83 839 24.78 2.9 37.3 63 -3.3 26
20:00 1010 29.83 839 24.78 3.2 37.7 64 -2.9 26.8
20:05 1010 29.83 839 24.78 3.1 37.6 63 -3.2 26.2
20:10 1010 29.83 839 24.78 3.3 37.9 62 -3.3 26.1
20:15 1010 29.83 839 24.78 3.5 38.2 62 -3.2 26.2
20:20 1010 29.83 839 24.78 3.6 38.4 61 -3.2 26.2
20:25 1010 29.83 839 24.78 3.4 38.1 62 -3.2 26.3
20:30 1010 29.83 839 24.78 3.3 38 61 -3.5 25.6
20:35 1010 29.83 839 24.78 3.4 38.1 61 -3.5 25.7
20:40 1010 29.83 839 24.78 3.5 38.3 60 -3.4 25.8
20:45 1010 29.83 839 24.78 3.5 38.3 60 -3.5 25.7
20:50 1010 29.83 839 24.78 3.5 38.4 62 -3.1 26.4
20:55 1010 29.83 839 24.78 3.5 38.2 62 -3.2 26.2
21:00 1010 29.83 839 24.78 3.5 38.3 62 -3.1 26.4
21:05 1010 29.83 839 24.78 3.5 38.4 62 -3.1 26.4
21:10 1010 29.83 839 24.78 3.4 38.1 63 -3 26.6
21:15 1010 29.83 839 24.78 2.9 37.3 64 -3.1 26.4
21:20 1010 29.83 839 24.78 3.1 37.5 63 -3.4 26
21:25 1010 29.83 839 24.78 3 37.4 65 -3 26.6
21:30 1010 29.83 839 24.78 2.7 36.9 66 -3 26.5
21:35 1010 29.83 839 24.78 2.6 36.8 66 -3.1 26.5
21:40 1010 29.83 839 24.78 2.7 36.9 65 -3.1 26.4
21:45 1010 29.83 839 24.78 2.9 37.3 64 -3.2 26.2
21:50 1010 29.83 839 24.78 3.2 37.7 64 -3 26.7
21:55 1010 29.83 839 24.78 3.1 37.5 63 -3.2 26.2
22:00 1010 29.83 839 24.78 3.1 37.5 64 -3 26.6
22:05 1010 29.83 839 24.78 2.9 37.3 65 -3 26.6
22:10 1010 29.83 839 24.78 2.7 36.8 67 -2.8 26.9
22:15 1010 29.83 839 24.78 2.6 36.6 66 -3.2 26.3
22:20 1010 29.83 839 24.78 2.7 36.8 66 -3.1 26.4
22:25 1010 29.83 839 24.78 2.7 36.9 66 -3 26.6
22:30 1010 29.83 839 24.78 2.7 36.8 66 -3 26.6
22:35 1010 29.83 839 24.78 2.5 36.5 69 -2.6 27.3
22:40 1010 29.83 839 24.78 2.3 36.1 70 -2.7 27.2
22:45 1010 29.83 839 24.78 2.1 35.7 69 -3 26.6
22:50 1010 29.83 839 24.78 2.1 35.8 68 -3.2 26.3
22:55 1010 29.83 839 24.78 2.3 36.1 68 -3 26.5
23:00 1010 29.83 839 24.78 2.3 36.1 68 -3 26.6
23:05 1010 29.83 840 24.81 2.2 36 69 -3 26.7
23:10 1010 29.83 840 24.81 2.2 35.9 69 -2.9 26.8
23:15 1010 29.83 840 24.81 2.2 36 69 -2.8 27
23:20 1010 29.83 840 24.81 2.4 36.2 68 -2.9 26.7
23:25 1010 29.83 840 24.81 2.4 36.3 69 -2.7 27.1
23:30 1011 29.85 840 24.81 2.3 36.1 70 -2.6 27.2
23:35 1011 29.85 840 24.81 2.1 35.8 71 -2.6 27.3
23:40 1011 29.85 840 24.81 1.7 35.1 73 -2.6 27.3
23:45 1011 29.85 840 24.81 1.3 34.4 74 -2.8 27
23:50 1011 29.85 840 24.81 1.2 34.1 74 -2.9 26.8
23:55 1011 29.85 840 24.81 1.4 34.5 72 -3.1 26.5
24:00 1011 29.85 840 24.81 1.7 35 71 -3 26.6